Time;durP1;ratioP1;P1;durP2;ratioP2;P2;SDS_P1;SDS_P2;PMS_P1;PMS_P2;Temp;Humidity;BMP_temperature;BMP_pressure;BME280_temperature;BME280_humidity;BME280_pressure;Samples;Min_cycle;Max_cycle;Signal;HPM_P1;HPM_P2
2024/01/21 00:00:41;;;;;;;33.40;27.30;;;;;;;-2.47;93.93;99172.66;107576;1279;22571;-79
2024/01/21 00:03:29;;;;;;;30.10;26.80;;;;;;;-2.53;93.98;99173.52;107263;1273;25933;-81
2024/01/21 00:05:58;;;;;;;28.50;23.60;;;;;;;-2.50;93.52;99177.45;107567;1276;22586;-79
2024/01/21 00:08:26;;;;;;;30.10;26.70;;;;;;;-2.47;94.56;99171.21;107739;1270;22530;-87
2024/01/21 00:10:54;;;;;;;30.00;26.70;;;;;;;-2.47;94.21;99172.69;108359;1269;22548;-84
2024/01/21 00:13:22;;;;;;;30.70;27.50;;;;;;;-2.49;93.83;99169.15;108726;1279;24227;-84
2024/01/21 00:15:50;;;;;;;27.70;24.80;;;;;;;-2.49;94.13;99172.55;107509;1278;24073;-88
2024/01/21 00:18:18;;;;;;;29.10;25.30;;;;;;;-2.47;94.46;99169.83;106942;1267;22871;-88
2024/01/21 00:20:46;;;;;;;29.00;25.50;;;;;;;-2.43;95.05;99173.65;106920;1266;23136;-89
2024/01/21 00:23:14;;;;;;;29.40;26.20;;;;;;;-2.41;94.88;99171.20;106869;1269;24344;-81
2024/01/21 00:25:42;;;;;;;27.50;24.50;;;;;;;-2.41;96.00;99176.29;106752;1269;23935;-88
2024/01/21 00:28:10;;;;;;;27.10;24.30;;;;;;;-2.45;96.16;99174.76;106765;1272;22536;-84
2024/01/21 00:30:38;;;;;;;26.90;24.00;;;;;;;-2.48;96.48;99177.69;106817;1273;23890;-85
2024/01/21 00:33:07;;;;;;;29.00;25.00;;;;;;;-2.49;96.14;99182.45;107103;1272;23914;-84
2024/01/21 00:35:35;;;;;;;26.80;24.00;;;;;;;-2.46;96.01;99183.77;107018;1279;25418;-85
2024/01/21 00:38:03;;;;;;;28.50;25.40;;;;;;;-2.45;97.03;99183.34;107039;1264;25545;-83
2024/01/21 00:40:31;;;;;;;28.00;24.90;;;;;;;-2.48;97.68;99190.71;106821;1279;25466;-86
2024/01/21 00:42:59;;;;;;;26.30;23.50;;;;;;;-2.53;96.52;99199.39;106738;1266;23888;-82
2024/01/21 00:45:28;;;;;;;26.00;22.70;;;;;;;-2.49;96.96;99206.94;107083;1278;22599;-85
2024/01/21 00:47:55;;;;;;;28.00;24.70;;;;;;;-2.47;96.63;99207.66;106997;1263;24189;-85
2024/01/21 00:50:26;;;;;;;27.70;24.70;;;;;;;-2.46;97.18;99209.84;107166;1266;24176;-86
2024/01/21 00:52:54;;;;;;;29.10;26.00;;;;;;;-2.47;97.87;99206.62;107504;1272;25934;-82
2024/01/21 00:55:23;;;;;;;27.90;24.10;;;;;;;-2.53;97.53;99201.98;107253;1278;22571;-81
2024/01/21 00:57:52;;;;;;;29.30;26.10;;;;;;;-2.50;96.93;99205.27;107179;1259;22861;-82
2024/01/21 01:00:25;;;;;;;28.10;24.40;;;;;;;-2.47;97.03;99204.13;107363;1278;24343;-81
2024/01/21 01:02:54;;;;;;;31.10;26.30;;;;;;;-2.44;97.36;99206.05;107445;1269;24248;-83
2024/01/21 01:05:23;;;;;;;29.10;26.10;;;;;;;-2.44;96.85;99206.45;107115;1278;22797;-82
2024/01/21 01:07:51;;;;;;;28.00;25.00;;;;;;;-2.41;97.41;99209.09;107664;1264;22594;-84
2024/01/21 01:10:19;;;;;;;28.30;25.10;;;;;;;-2.42;96.96;99209.88;107575;1278;22653;-82
2024/01/21 01:12:50;;;;;;;26.40;23.40;;;;;;;-2.39;97.80;99210.29;107721;1272;22590;-88
2024/01/21 01:15:18;;;;;;;28.60;25.60;;;;;;;-2.36;97.89;99213.77;107648;1272;23017;-91
2024/01/21 01:17:51;;;;;;;25.80;22.90;;;;;;;-2.36;97.90;99208.23;107816;1269;22952;-90
2024/01/21 01:20:21;;;;;;;29.80;23.20;;;;;;;-2.36;98.66;99205.86;107306;1275;25895;-85
2024/01/21 01:22:50;;;;;;;27.30;24.10;;;;;;;-2.37;98.09;99205.27;107747;1273;22590;-84
2024/01/21 01:25:21;;;;;;;28.90;24.70;;;;;;;-2.34;97.98;99204.88;107550;1272;22538;-85
2024/01/21 01:27:51;;;;;;;28.40;25.20;;;;;;;-2.32;98.32;99196.86;107742;1278;23023;-90
2024/01/21 01:30:20;;;;;;;30.00;26.80;;;;;;;-2.27;98.29;99205.52;107803;1264;23782;-86
2024/01/21 01:32:51;;;;;;;28.10;25.00;;;;;;;-2.26;97.87;99206.80;107687;1273;22584;-80
2024/01/21 01:35:21;;;;;;;30.90;26.60;;;;;;;-1.78;99.63;99216.42;108012;1266;22545;-84
2024/01/21 01:38:00;;;;;;;29.70;26.50;;;;;;;-1.74;97.85;99217.73;109796;1278;23869;-89
2024/01/21 01:40:34;;;;;;;28.20;24.60;;;;;;;-1.79;98.89;99216.25;109643;1278;22635;-90
2024/01/21 01:43:09;;;;;;;29.90;26.80;;;;;;;-1.87;98.96;99220.16;108935;1278;25345;-88
2024/01/21 01:45:39;;;;;;;32.20;28.90;;;;;;;-1.92;98.26;99222.90;109234;1278;22572;-91
2024/01/21 01:48:33;;;;;;;31.20;28.00;;;;;;;-1.94;98.19;99224.74;110086;1278;22559;-91
2024/01/21 01:51:06;;;;;;;31.80;27.80;;;;;;;-1.98;97.69;99224.86;109522;1275;23362;-92
2024/01/21 01:53:37;;;;;;;32.80;27.30;;;;;;;-1.96;97.48;99225.05;107853;1279;24549;-88
2024/01/21 01:56:07;;;;;;;29.50;26.40;;;;;;;-1.93;97.61;99227.43;107846;1278;22540;-89
2024/01/21 01:58:40;;;;;;;28.90;25.60;;;;;;;-1.91;97.72;99232.23;107670;1279;22608;-87
2024/01/21 02:01:09;;;;;;;29.40;26.20;;;;;;;-1.94;97.70;99230.85;107647;1270;22541;-83
2024/01/21 02:03:38;;;;;;;28.00;25.00;;;;;;;-1.99;97.41;99232.02;107463;1273;22498;-88
2024/01/21 02:06:15;;;;;;;26.80;23.40;;;;;;;-2.01;97.46;99232.70;107494;1278;25591;-86
2024/01/21 02:08:44;;;;;;;28.50;25.50;;;;;;;-2.02;97.13;99230.54;107518;1278;23255;-85
2024/01/21 02:11:12;;;;;;;29.60;26.40;;;;;;;-2.02;97.20;99230.49;107267;1269;24193;-86
2024/01/21 02:13:41;;;;;;;29.90;26.60;;;;;;;-2.05;97.01;99229.20;107287;1266;24263;-89
2024/01/21 02:16:10;;;;;;;34.20;30.00;;;;;;;-2.06;96.76;99229.16;107505;1275;25440;-87
2024/01/21 02:18:42;;;;;;;30.80;27.30;;;;;;;-2.08;96.66;99231.00;107347;1256;22587;-87
2024/01/21 02:21:12;;;;;;;27.60;24.70;;;;;;;-2.07;96.78;99228.00;107230;1279;22542;-84
2024/01/21 02:23:43;;;;;;;30.20;27.00;;;;;;;-2.05;96.90;99231.73;107470;1279;23260;-85
2024/01/21 02:26:11;;;;;;;27.90;25.00;;;;;;;-2.06;96.88;99235.83;107112;1278;25229;-87
2024/01/21 02:28:39;;;;;;;29.70;26.60;;;;;;;-2.09;96.58;99230.94;107568;1268;22566;-88
2024/01/21 02:31:10;;;;;;;30.70;27.10;;;;;;;-2.09;96.55;99231.34;107920;1279;22635;-88
2024/01/21 02:33:40;;;;;;;29.50;25.50;;;;;;;-2.11;96.21;99224.98;108369;1272;26506;-90
2024/01/21 02:36:22;;;;;;;27.10;24.20;;;;;;;-2.08;96.30;99236.61;107827;1257;22560;-90
2024/01/21 02:38:53;;;;;;;29.90;25.80;;;;;;;-2.03;96.48;99244.87;107904;1279;23904;-90
2024/01/21 02:41:24;;;;;;;30.30;26.60;;;;;;;-1.97;96.45;99246.58;108339;1272;22506;-90
2024/01/21 02:44:03;;;;;;;35.70;31.30;;;;;;;-1.94;96.34;99251.66;109018;1276;22664;-91
2024/01/21 02:46:33;;;;;;;32.10;28.80;;;;;;;-1.93;96.37;99250.33;108353;1269;22541;-90
2024/01/21 02:49:01;;;;;;;34.80;30.80;;;;;;;-1.91;96.20;99243.56;108198;1272;22552;-91
2024/01/21 02:51:30;;;;;;;28.90;25.90;;;;;;;-1.90;96.32;99243.29;108046;1273;22649;-90
2024/01/21 02:54:04;;;;;;;31.20;27.00;;;;;;;-1.87;96.17;99245.75;107880;1279;22534;-85
2024/01/21 02:56:33;;;;;;;34.50;29.50;;;;;;;-1.83;96.34;99248.16;107795;1276;24190;-91
2024/01/21 02:59:04;;;;;;;34.70;29.00;;;;;;;-1.82;96.42;99258.86;109711;1272;23512;-89
2024/01/21 03:01:35;;;;;;;44.50;34.30;;;;;;;-1.84;96.33;99261.69;109892;1267;22478;-91
2024/01/21 03:04:04;;;;;;;47.70;37.70;;;;;;;-1.84;96.09;99262.95;109439;1272;24363;-91
2024/01/21 03:06:32;;;;;;;40.70;34.10;;;;;;;-1.83;96.24;99263.33;108592;1262;25501;-90
2024/01/21 03:09:00;;;;;;;41.80;35.20;;;;;;;-1.83;96.08;99261.53;108432;1279;25223;-91
2024/01/21 03:11:32;;;;;;;41.60;33.70;;;;;;;-1.82;95.94;99259.71;107913;1279;22821;-91
2024/01/21 03:14:00;;;;;;;35.70;30.40;;;;;;;-1.79;95.86;99260.52;107786;1269;22663;-89
2024/01/21 03:16:30;;;;;;;35.70;28.60;;;;;;;-1.75;96.25;99261.63;107545;1279;24282;-89
2024/01/21 03:19:03;;;;;;;30.10;26.80;;;;;;;-1.74;96.01;99260.55;107722;1276;22747;-82
2024/01/21 03:21:32;;;;;;;33.30;29.70;;;;;;;-1.72;95.99;99264.75;107380;1266;22502;-83
2024/01/21 03:24:00;;;;;;;29.50;26.40;;;;;;;-1.74;95.96;99268.50;108173;1279;25410;-82
2024/01/21 03:26:31;;;;;;;32.40;28.20;;;;;;;-1.76;95.95;99270.68;108507;1279;22564;-85
2024/01/21 03:29:00;;;;;;;32.70;26.60;;;;;;;-1.77;95.74;99270.92;107786;1278;24227;-82
2024/01/21 03:31:28;;;;;;;28.30;25.40;;;;;;;-1.75;95.80;99276.05;107102;1268;25399;-83
2024/01/21 03:33:57;;;;;;;29.40;26.00;;;;;;;-1.73;95.77;99272.92;107301;1272;25291;-84
2024/01/21 03:36:25;;;;;;;28.30;25.30;;;;;;;-1.69;95.75;99273.33;107449;1269;22536;-84
2024/01/21 03:38:59;;;;;;;29.50;26.40;;;;;;;-1.66;95.68;99274.05;108001;1279;22536;-84
2024/01/21 03:41:33;;;;;;;;;;;;;;;-1.64;95.82;99268.52;107409;1273;22685;-86
2024/01/21 03:44:02;;;;;;;29.20;25.20;;;;;;;-1.65;95.80;99269.64;107157;1279;22491;-85
2024/01/21 03:46:30;;;;;;;28.40;25.20;;;;;;;-1.66;95.60;99266.81;107185;1276;23799;-85
2024/01/21 03:48:58;;;;;;;28.10;25.20;;;;;;;-1.70;95.44;99269.40;107521;1275;22546;-83
2024/01/21 03:51:26;;;;;;;28.30;25.40;;;;;;;-1.68;95.64;99273.45;107308;1279;23846;-84
2024/01/21 03:53:57;;;;;;;31.30;26.60;;;;;;;-1.64;95.52;99272.86;107508;1269;22765;-83
2024/01/21 03:56:25;;;;;;;29.10;26.00;;;;;;;-1.59;95.49;99275.44;107317;1279;22547;-82
2024/01/21 03:58:53;;;;;;;30.20;27.10;;;;;;;-1.55;95.51;99278.20;107288;1278;22646;-83
2024/01/21 04:01:23;;;;;;;30.30;26.50;;;;;;;-1.56;95.51;99276.86;107346;1279;24160;-83
2024/01/21 04:03:51;;;;;;;34.60;28.40;;;;;;;-1.57;95.48;99277.48;107367;1273;24932;-82
2024/01/21 04:06:23;;;;;;;29.70;26.60;;;;;;;-1.57;95.59;99274.15;107246;1279;22601;-82
2024/01/21 04:08:51;;;;;;;31.60;28.20;;;;;;;-1.56;95.60;99273.50;107398;1279;23932;-82
2024/01/21 04:11:19;;;;;;;29.80;26.80;;;;;;;-1.79;95.39;99245.08;107580;1279;22553;-82
2024/01/21 04:13:49;;;;;;;26.80;23.90;;;;;;;-1.59;95.22;99272.83;107366;1273;24316;-81
2024/01/21 04:16:17;;;;;;;27.60;24.70;;;;;;;-1.58;95.19;99274.34;107379;1275;24590;-82
2024/01/21 04:18:47;;;;;;;26.00;23.40;;;;;;;-1.57;95.18;99279.23;107211;1272;22531;-82
2024/01/21 04:21:18;;;;;;;26.60;23.50;;;;;;;-1.59;95.20;99279.52;107075;1279;22586;-81
2024/01/21 04:23:46;;;;;;;27.10;23.90;;;;;;;-1.59;95.20;99283.89;107210;1276;22494;-81
2024/01/21 04:26:15;;;;;;;28.80;25.60;;;;;;;-1.60;95.24;99287.05;107160;1278;23474;-82
2024/01/21 04:28:43;;;;;;;27.30;24.50;;;;;;;-1.62;95.24;99284.80;107064;1264;22537;-82
2024/01/21 04:31:11;;;;;;;28.70;24.50;;;;;;;-1.65;95.26;99285.30;106996;1279;22834;-82
2024/01/21 04:33:40;;;;;;;27.90;24.90;;;;;;;-1.64;95.24;99291.41;107632;1267;22592;-81
2024/01/21 04:36:08;;;;;;;26.60;23.90;;;;;;;-1.59;95.44;99295.16;107292;1278;23119;-80
2024/01/21 04:38:36;;;;;;;25.40;22.80;;;;;;;-1.52;95.48;99299.26;107397;1276;23929;-81
2024/01/21 04:41:05;;;;;;;28.20;25.40;;;;;;;-1.47;95.42;99299.58;107124;1263;22544;-81
2024/01/21 04:43:36;;;;;;;29.10;26.10;;;;;;;-1.47;95.19;99300.38;107075;1278;22663;-81
2024/01/21 04:46:10;;;;;;;28.80;26.10;;;;;;;-1.47;95.35;99297.41;107238;1267;22488;-81
2024/01/21 04:48:39;;;;;;;28.70;25.70;;;;;;;-1.47;95.57;99297.61;107553;1267;22552;-80
2024/01/21 04:51:08;;;;;;;26.20;23.50;;;;;;;-1.48;95.41;99302.11;107268;1263;22560;-82
2024/01/21 04:53:39;;;;;;;26.80;24.00;;;;;;;-1.47;95.43;99304.73;107048;1279;24177;-82
2024/01/21 04:56:15;;;;;;;26.00;23.00;;;;;;;-1.43;95.46;99310.17;106668;1279;25325;-81
2024/01/21 04:58:45;;;;;;;26.10;23.10;;;;;;;-1.36;95.46;99307.20;106995;1276;25418;-84
2024/01/21 05:01:13;;;;;;;25.40;22.70;;;;;;;-1.37;95.31;99309.99;108719;1278;22533;-84
2024/01/21 05:03:41;;;;;;;27.10;24.20;;;;;;;-1.41;95.15;99311.30;106870;1279;22605;-83
2024/01/21 05:06:10;;;;;;;30.30;27.50;;;;;;;-1.43;95.44;99307.73;107001;1279;23912;-84
2024/01/21 05:08:38;;;;;;;27.40;24.70;;;;;;;-1.46;95.49;99309.78;106864;1278;24231;-85
2024/01/21 05:11:07;;;;;;;27.10;24.40;;;;;;;-1.49;95.37;99310.96;106789;1279;22644;-85
2024/01/21 05:13:35;;;;;;;27.00;24.10;;;;;;;-1.53;95.18;99313.36;106898;1278;24238;-82
2024/01/21 05:16:17;;;;;;;25.30;22.60;;;;;;;-1.55;95.18;99318.65;107104;1279;22666;-83
2024/01/21 05:18:45;;;;;;;29.20;26.20;;;;;;;-1.54;95.07;99316.48;108219;1264;23919;-84
2024/01/21 05:21:22;;;;;;;32.40;28.90;;;;;;;-1.53;95.16;99314.58;107791;1279;25099;-84
2024/01/21 05:23:56;;;;;;;32.20;29.10;;;;;;;-1.51;95.31;99316.44;107934;1278;25520;-83
2024/01/21 05:26:24;;;;;;;32.30;29.10;;;;;;;-1.45;95.70;99314.09;106841;1276;22584;-87
2024/01/21 05:28:55;;;;;;;34.40;31.00;;;;;;;-1.42;95.65;99307.02;107007;1279;23599;-82
2024/01/21 05:31:27;;;;;;;33.50;30.00;;;;;;;-1.39;95.50;99310.58;106981;1273;22546;-81
2024/01/21 05:33:55;;;;;;;34.80;30.70;;;;;;;-1.39;95.56;99306.88;106791;1279;25348;-82
2024/01/21 05:36:23;;;;;;;30.80;27.60;;;;;;;-1.38;95.43;99308.15;106917;1257;25501;-83
2024/01/21 05:38:51;;;;;;;30.50;27.30;;;;;;;-1.35;95.38;99298.80;106998;1276;22645;-82
2024/01/21 05:41:19;;;;;;;31.20;28.00;;;;;;;-1.30;95.42;99298.77;106966;1279;22538;-82
2024/01/21 05:43:47;;;;;;;30.40;27.10;;;;;;;-1.27;95.17;99300.59;106960;1279;24336;-83
2024/01/21 05:46:15;;;;;;;32.50;29.40;;;;;;;-1.21;95.11;99303.45;106970;1273;25505;-82
2024/01/21 05:48:42;;;;;;;33.50;30.30;;;;;;;-1.20;95.22;99311.36;106923;1276;25366;-82
2024/01/21 05:51:11;;;;;;;34.10;31.00;;;;;;;-1.21;95.30;99315.09;106957;1279;25397;-82
2024/01/21 05:53:41;;;;;;;34.80;31.50;;;;;;;-1.23;95.13;99314.66;106916;1279;23029;-82
2024/01/21 05:56:10;;;;;;;38.00;34.50;;;;;;;-1.23;95.23;99314.66;107040;1269;23081;-80
2024/01/21 05:58:38;;;;;;;33.50;30.20;;;;;;;-1.25;95.19;99312.00;106615;1256;24193;-82
2024/01/21 06:01:06;;;;;;;34.90;31.40;;;;;;;-1.27;95.12;99313.25;106984;1276;25363;-81
2024/01/21 06:03:34;;;;;;;32.60;29.40;;;;;;;-1.30;94.91;99314.61;106948;1276;23474;-80
2024/01/21 06:06:03;;;;;;;30.90;27.70;;;;;;;-1.31;94.55;99314.34;106635;1279;22538;-81
2024/01/21 06:08:31;;;;;;;33.20;29.90;;;;;;;-1.28;95.04;99314.16;106649;1263;22537;-82
2024/01/21 06:10:59;;;;;;;37.10;33.50;;;;;;;-1.26;95.10;99313.38;106685;1276;24324;-83
2024/01/21 06:13:27;;;;;;;35.70;32.40;;;;;;;-1.25;95.26;99316.80;106602;1279;22662;-82
2024/01/21 06:15:55;;;;;;;36.60;32.90;;;;;;;-1.23;95.09;99314.63;106618;1276;25344;-81
2024/01/21 06:18:23;;;;;;;43.00;39.00;;;;;;;-1.23;95.32;99315.48;106638;1273;25504;-81
2024/01/21 06:20:51;;;;;;;45.60;41.30;;;;;;;-1.21;95.47;99319.52;106967;1261;22649;-81
2024/01/21 06:23:19;;;;;;;41.90;37.70;;;;;;;-1.21;95.42;99321.89;106690;1266;25326;-81
2024/01/21 06:25:47;;;;;;;39.60;35.80;;;;;;;-1.22;95.02;99322.36;106987;1275;25488;-82
2024/01/21 06:28:16;;;;;;;40.10;36.10;;;;;;;-1.21;95.12;99318.34;106676;1279;25233;-83
2024/01/21 06:30:45;;;;;;;39.80;35.90;;;;;;;-1.15;95.15;99310.98;106747;1279;22630;-83
2024/01/21 06:33:13;;;;;;;42.60;38.40;;;;;;;-1.11;95.13;99312.59;107244;1276;28062;-84
2024/01/21 06:35:42;;;;;;;38.10;34.30;;;;;;;-1.06;94.98;99310.30;108485;1279;24206;-83
2024/01/21 06:38:10;;;;;;;40.70;36.70;;;;;;;-1.05;95.02;99310.33;107308;1269;25552;-83
2024/01/21 06:40:38;;;;;;;42.00;37.60;;;;;;;-1.04;95.23;99312.16;106742;1276;25506;-84
2024/01/21 06:43:06;;;;;;;31.90;28.80;;;;;;;-1.03;95.00;99316.05;106728;1263;26621;-86
2024/01/21 06:45:35;;;;;;;34.10;30.60;;;;;;;-1.03;95.10;99308.48;106868;1279;22541;-83
2024/01/21 06:48:03;;;;;;;35.00;31.60;;;;;;;-1.03;95.06;99309.54;107003;1267;25515;-84
2024/01/21 06:50:31;;;;;;;34.30;31.10;;;;;;;-1.02;95.15;99310.84;106637;1278;22547;-84
2024/01/21 06:52:59;;;;;;;32.90;29.70;;;;;;;-1.01;95.06;99314.56;107245;1269;22568;-83
2024/01/21 06:55:27;;;;;;;32.60;29.40;;;;;;;-0.99;94.91;99315.48;106759;1273;25297;-84
2024/01/21 06:57:55;;;;;;;34.40;31.20;;;;;;;-0.93;94.82;99321.81;106905;1269;25482;-83
2024/01/21 07:00:23;;;;;;;33.10;29.90;;;;;;;-0.86;94.92;99318.68;107058;1278;25476;-84
2024/01/21 07:02:51;;;;;;;36.60;33.10;;;;;;;-0.82;95.03;99324.75;106943;1278;23149;-83
2024/01/21 07:05:19;;;;;;;38.10;34.20;;;;;;;-0.79;95.16;99322.90;106868;1279;22563;-83
2024/01/21 07:07:47;;;;;;;43.10;39.00;;;;;;;-0.77;94.88;99325.98;107020;1278;24233;-82
2024/01/21 07:10:17;;;;;;;44.00;40.20;;;;;;;-0.74;95.10;99332.75;106667;1269;22783;-84
2024/01/21 07:12:46;;;;;;;46.20;41.30;;;;;;;-0.75;94.68;99333.08;106919;1279;25373;-83
2024/01/21 07:15:14;;;;;;;46.70;42.40;;;;;;;-0.79;94.56;99328.73;106678;1268;23905;-83
2024/01/21 07:17:43;;;;;;;43.80;39.60;;;;;;;-0.75;95.05;99328.64;106560;1279;25290;-83
2024/01/21 07:20:12;;;;;;;42.50;38.40;;;;;;;-0.74;94.80;99322.29;106610;1273;24228;-83
2024/01/21 07:22:40;;;;;;;40.60;36.70;;;;;;;-0.72;94.58;99323.12;106882;1279;25464;-82
2024/01/21 07:25:08;;;;;;;39.00;35.30;;;;;;;-0.71;94.37;99325.95;106649;1270;22787;-82
2024/01/21 07:27:36;;;;;;;34.30;31.10;;;;;;;-0.65;94.54;99322.48;106813;1279;24068;-82
2024/01/21 07:30:06;;;;;;;34.70;31.30;;;;;;;-0.63;94.52;99324.34;106861;1279;23659;-82
2024/01/21 07:32:33;;;;;;;37.10;33.40;;;;;;;-0.63;94.46;99318.19;106964;1273;22640;-83
2024/01/21 07:35:01;;;;;;;52.10;47.10;;;;;;;-0.63;94.50;99321.53;106971;1276;22885;-81
2024/01/21 07:37:29;;;;;;;56.50;51.10;;;;;;;-0.63;94.55;99319.74;106903;1258;22586;-81
2024/01/21 07:39:57;;;;;;;49.90;44.80;;;;;;;-0.61;94.97;99315.40;106868;1269;22560;-81
2024/01/21 07:42:25;;;;;;;51.20;46.40;;;;;;;-0.57;94.55;99320.36;106658;1279;22538;-82
2024/01/21 07:44:53;;;;;;;45.60;41.10;;;;;;;-0.52;94.97;99320.23;106635;1270;24248;-81
2024/01/21 07:47:21;;;;;;;45.30;40.90;;;;;;;-0.42;94.85;99319.65;106668;1273;24323;-82
2024/01/21 07:49:49;;;;;;;42.00;37.90;;;;;;;-0.32;94.81;99322.34;106915;1273;22544;-81
2024/01/21 07:52:17;;;;;;;41.50;37.10;;;;;;;-0.21;94.48;99321.52;106965;1272;22530;-84
2024/01/21 07:54:45;;;;;;;51.00;45.70;;;;;;;-0.15;94.51;99320.36;106846;1276;25406;-83
2024/01/21 07:57:13;;;;;;;86.20;65.40;;;;;;;-0.08;94.76;99321.25;106897;1275;23827;-83
2024/01/21 07:59:41;;;;;;;135.20;80.30;;;;;;;-0.01;94.78;99327.66;106925;1276;24197;-83
2024/01/21 08:02:09;;;;;;;89.40;68.60;;;;;;;0.02;94.55;99330.13;107000;1274;23385;-83
2024/01/21 08:04:37;;;;;;;62.10;54.80;;;;;;;0.06;94.63;99331.14;106855;1279;22540;-83
2024/01/21 08:07:05;;;;;;;58.10;52.20;;;;;;;0.10;94.56;99329.44;106856;1270;22549;-84
2024/01/21 08:09:34;;;;;;;53.70;48.40;;;;;;;0.15;94.52;99329.36;107145;1276;22830;-83
2024/01/21 08:12:02;;;;;;;50.00;45.20;;;;;;;0.15;94.13;99325.98;107631;1278;22765;-84
2024/01/21 08:14:32;;;;;;;53.20;48.20;;;;;;;0.16;94.05;99328.95;107030;1267;22623;-82
2024/01/21 08:16:59;;;;;;;48.20;43.50;;;;;;;0.22;94.25;99331.21;106981;1267;22552;-83
2024/01/21 08:19:28;;;;;;;39.90;35.80;;;;;;;0.29;94.04;99332.45;107013;1279;24049;-84
2024/01/21 08:21:56;;;;;;;49.10;43.90;;;;;;;0.34;93.56;99335.20;106692;1273;25419;-82
2024/01/21 08:24:24;;;;;;;47.30;42.50;;;;;;;0.41;93.50;99339.95;106560;1279;22683;-83
2024/01/21 08:26:52;;;;;;;44.70;40.30;;;;;;;0.55;94.01;99345.77;106847;1269;25392;-83
2024/01/21 08:29:20;;;;;;;44.10;39.70;;;;;;;0.65;93.54;99342.75;106899;1279;22564;-81
2024/01/21 08:31:48;;;;;;;44.60;39.90;;;;;;;0.67;93.48;99341.65;106782;1269;22622;-82
2024/01/21 08:34:16;;;;;;;44.10;40.00;;;;;;;0.71;93.61;99345.45;106670;1269;24474;-84
2024/01/21 08:36:44;;;;;;;46.30;41.90;;;;;;;0.74;93.23;99344.34;106901;1273;22678;-85
2024/01/21 08:39:12;;;;;;;47.10;42.20;;;;;;;0.79;93.53;99350.80;106692;1279;22541;-84
2024/01/21 08:41:40;;;;;;;47.10;42.40;;;;;;;0.84;93.44;99357.87;106994;1279;22623;-85
2024/01/21 08:44:08;;;;;;;46.80;42.20;;;;;;;0.87;93.26;99364.53;106970;1278;25293;-83
2024/01/21 08:46:37;;;;;;;44.30;40.00;;;;;;;0.92;93.47;99368.26;106777;1269;23747;-86
2024/01/21 08:49:05;;;;;;;44.20;38.90;;;;;;;0.94;93.10;99367.89;108694;1276;22544;-87
2024/01/21 08:51:33;;;;;;;40.40;36.50;;;;;;;1.00;93.37;99371.27;110181;1278;22644;-89
2024/01/21 08:54:07;;;;;;;40.30;36.30;;;;;;;1.10;93.75;99374.15;110221;1262;22368;31
2024/01/21 08:56:41;;;;;;;35.10;31.40;;;;;;;1.13;93.29;99365.34;100058;1257;22486;31
2024/01/21 08:59:10;;;;;;;33.70;30.20;;;;;;;1.23;92.99;99372.75;110238;1279;22604;-87
2024/01/21 09:01:38;;;;;;;39.20;35.30;;;;;;;1.31;92.76;99372.22;109661;1280;23863;-91
2024/01/21 09:04:10;;;;;;;36.50;32.70;;;;;;;1.38;92.52;99375.75;109525;1280;22557;-91
2024/01/21 09:06:41;;;;;;;33.60;30.10;;;;;;;1.40;92.46;99380.48;108002;1280;25884;-82
2024/01/21 09:09:11;;;;;;;34.20;30.70;;;;;;;1.40;92.24;99379.84;106841;1276;22536;-83
2024/01/21 09:11:40;;;;;;;33.60;30.30;;;;;;;1.42;92.25;99380.33;106872;1269;25237;-83
2024/01/21 09:14:08;;;;;;;32.10;28.80;;;;;;;1.45;92.27;99379.27;106506;1280;22595;-82
2024/01/21 09:16:36;;;;;;;30.70;27.40;;;;;;;1.52;92.32;99381.72;106883;1272;22557;-82
2024/01/21 09:19:04;;;;;;;32.00;28.00;;;;;;;1.56;92.00;99383.77;106935;1278;24258;-84
2024/01/21 09:21:34;;;;;;;32.00;28.60;;;;;;;1.59;91.81;99380.02;106838;1278;25412;-83
2024/01/21 09:24:03;;;;;;;33.70;30.10;;;;;;;1.60;91.95;99374.45;106884;1277;22547;-83
2024/01/21 09:26:34;;;;;;;31.40;28.20;;;;;;;1.61;91.96;99368.89;106663;1266;23899;-84
2024/01/21 09:29:02;;;;;;;32.40;28.40;;;;;;;1.70;91.69;99372.54;106889;1276;25409;-83
2024/01/21 09:31:30;;;;;;;34.40;30.80;;;;;;;1.77;91.35;99368.33;106567;1269;23896;-82
2024/01/21 09:33:58;;;;;;;36.00;32.50;;;;;;;1.79;91.57;99366.15;106462;1280;26496;-82
2024/01/21 09:36:26;;;;;;;35.80;32.00;;;;;;;1.83;91.35;99366.60;106964;1273;23538;-81
2024/01/21 09:38:54;;;;;;;34.30;30.80;;;;;;;1.82;91.00;99371.75;106505;1269;22706;-82
2024/01/21 09:41:36;;;;;;;32.80;29.50;;;;;;;1.82;91.02;99367.09;106949;1279;22625;-83
2024/01/21 09:44:05;;;;;;;30.30;27.20;;;;;;;1.87;91.11;99365.48;106941;1279;22701;-84
2024/01/21 09:46:33;;;;;;;29.60;26.40;;;;;;;1.92;90.94;99365.08;107613;1266;22627;-86
2024/01/21 09:49:03;;;;;;;30.00;26.80;;;;;;;1.96;91.10;99367.03;109147;1273;22577;-81
2024/01/21 09:51:32;;;;;;;29.00;26.00;;;;;;;2.04;91.00;99368.05;108002;1279;24249;-84
2024/01/21 09:54:04;;;;;;;30.40;25.80;;;;;;;2.13;90.66;99369.46;106828;1266;157019;-82
2024/01/21 09:56:34;;;;;;;28.80;25.30;;;;;;;2.16;90.46;99366.91;107010;1266;24340;-84
2024/01/21 09:59:05;;;;;;;27.70;24.80;;;;;;;2.16;88.92;99366.55;106604;1269;25409;-83
2024/01/21 10:01:36;;;;;;;33.70;29.40;;;;;;;2.05;87.31;99369.11;106638;1276;22654;-83
2024/01/21 10:04:05;;;;;;;29.30;23.80;;;;;;;2.01;88.99;99367.92;106583;1266;25226;-84
2024/01/21 10:06:34;;;;;;;27.20;24.10;;;;;;;2.04;88.77;99364.23;106926;1279;22553;-86
2024/01/21 10:09:19;;;;;;;25.30;22.50;;;;;;;2.06;89.00;99364.02;106612;1278;22756;-83
2024/01/21 10:11:49;;;;;;;26.10;22.90;;;;;;;2.13;89.25;99364.19;106857;1279;23489;-83
2024/01/21 10:14:17;;;;;;;33.80;30.20;;;;;;;2.21;89.31;99358.81;106951;1279;25481;-82
2024/01/21 10:16:47;;;;;;;29.50;24.70;;;;;;;2.30;87.76;99358.17;106499;1279;22557;-81
2024/01/21 10:19:31;;;;;;;109.20;84.30;;;;;;;2.26;87.63;99357.44;106494;1271;22670;-81
2024/01/21 10:22:08;;;;;;;41.90;37.60;;;;;;;2.31;88.55;99355.30;106620;1264;22795;-80
2024/01/21 10:24:45;;;;;;;33.50;29.50;;;;;;;2.42;88.66;99358.30;106670;1279;25253;-82
2024/01/21 10:27:15;;;;;;;47.30;42.30;;;;;;;2.52;88.81;99358.14;106892;1279;22671;-81
2024/01/21 10:29:45;;;;;;;56.20;50.90;;;;;;;2.63;88.82;99359.12;106935;1279;25281;-81
2024/01/21 10:32:15;;;;;;;33.10;29.70;;;;;;;2.72;88.64;99356.09;106678;1279;22564;-81
2024/01/21 10:34:49;;;;;;;44.40;39.80;;;;;;;2.84;88.53;99355.61;106610;1269;24302;-82
2024/01/21 10:37:18;;;;;;;;;;;;;;;2.87;87.34;99349.88;106704;1279;24199;-80
2024/01/21 10:39:48;;;;;;;35.00;31.20;;;;;;;2.84;87.06;99339.69;106564;1271;25541;-81
2024/01/21 10:42:16;;;;;;;35.30;30.50;;;;;;;2.84;86.82;99344.53;106556;1279;22540;-81
2024/01/21 10:44:49;;;;;;;31.00;23.90;;;;;;;2.93;87.39;99343.67;106939;1279;22761;-81
2024/01/21 10:47:20;;;;;;;33.10;25.00;;;;;;;3.00;86.69;99344.23;106945;1267;25237;-84
2024/01/21 10:49:49;;;;;;;35.40;30.90;;;;;;;3.04;85.40;99341.43;106960;1276;23207;-82
2024/01/21 10:52:19;;;;;;;32.60;26.70;;;;;;;3.03;84.34;99340.94;106875;1279;24218;-83
2024/01/21 10:54:48;;;;;;;37.70;33.70;;;;;;;3.13;86.20;99330.45;106798;1263;22554;-82
2024/01/21 10:57:17;;;;;;;28.30;24.90;;;;;;;3.28;86.50;99327.65;107062;1279;25405;-91
2024/01/21 10:59:46;;;;;;;31.10;27.50;;;;;;;3.39;86.12;99321.34;107140;1272;22551;-86
2024/01/21 11:02:19;;;;;;;27.10;23.80;;;;;;;3.49;86.66;99311.96;106952;1279;23483;-85
2024/01/21 11:04:47;;;;;;;28.00;24.70;;;;;;;3.61;85.94;99304.27;106980;1279;25575;-86
2024/01/21 11:07:17;;;;;;;21.50;18.50;;;;;;;3.61;84.96;99301.45;106873;1279;22547;-86
2024/01/21 11:09:47;;;;;;;28.20;23.20;;;;;;;3.62;85.35;99298.64;106934;1273;22567;-87
2024/01/21 11:12:15;;;;;;;38.50;34.40;;;;;;;3.68;86.05;99300.85;107008;1279;22551;-82
2024/01/21 11:14:44;;;;;;;26.30;23.50;;;;;;;3.80;86.27;99295.82;106887;1279;25516;-85
2024/01/21 11:17:18;;;;;;;25.50;22.00;;;;;;;3.90;86.38;99287.71;106971;1276;25439;-84
2024/01/21 11:19:47;;;;;;;24.60;20.10;;;;;;;4.04;86.56;99286.46;106920;1276;24370;-81
2024/01/21 11:22:18;;;;;;;21.20;17.10;;;;;;;4.20;85.45;99280.95;107382;1279;22497;-81